createdAt,value
2022-10-17T00:01:25.519Z,17.68
2022-10-17T00:04:28.625Z,17.68
2022-10-17T00:07:31.574Z,17.72
2022-10-17T00:10:35.207Z,17.73
2022-10-17T00:13:38.077Z,17.73
2022-10-17T00:16:41.254Z,17.71
2022-10-17T00:19:44.120Z,17.64
2022-10-17T00:22:47.095Z,17.51
2022-10-17T00:26:02.349Z,17.43
2022-10-17T00:29:05.501Z,17.38
2022-10-17T00:32:08.805Z,17.36
2022-10-17T00:35:12.182Z,17.37
2022-10-17T00:38:15.154Z,17.37
2022-10-17T00:41:20.463Z,17.35
2022-10-17T00:44:32.258Z,17.34
2022-10-17T00:47:37.134Z,17.29
2022-10-17T00:50:44.032Z,17.29
2022-10-17T00:53:47.310Z,17.29
2022-10-17T00:56:51.364Z,17.25
2022-10-17T00:59:58.084Z,17.24
2022-10-17T01:03:00.934Z,17.21
2022-10-17T01:06:04.017Z,17.24
2022-10-17T01:09:06.981Z,17.26
2022-10-17T01:12:18.960Z,17.24
2022-10-17T01:15:37.180Z,17.19
2022-10-17T01:18:58.471Z,17.15
2022-10-17T01:22:10.854Z,17.21
2022-10-17T01:25:32.659Z,17.24
2022-10-17T01:29:00.600Z,17.18
2022-10-17T01:32:29.726Z,17.14
2022-10-17T01:35:41.443Z,17.09
2022-10-17T01:38:49.431Z,17.07
2022-10-17T01:41:59.669Z,17.08
2022-10-17T01:45:25.870Z,17.12
2022-10-17T01:48:35.749Z,17.13
2022-10-17T01:51:49.825Z,17.16
2022-10-17T01:54:58.467Z,17.14
2022-10-17T01:58:13.268Z,17.10
2022-10-17T02:01:17.607Z,17.06
2022-10-17T02:04:21.362Z,17.03
2022-10-17T02:07:24.590Z,17.00
2022-10-17T02:10:39.970Z,16.97
2022-10-17T02:14:21.650Z,16.95
2022-10-17T02:17:35.037Z,16.88
2022-10-17T02:20:49.909Z,16.79
2022-10-17T02:23:56.150Z,16.75
2022-10-17T02:27:12.218Z,16.76
2022-10-17T02:30:20.514Z,16.74
2022-10-17T02:33:29.528Z,16.65
2022-10-17T02:36:44.497Z,16.62
2022-10-17T02:39:48.680Z,16.60
2022-10-17T02:42:54.470Z,16.58
2022-10-17T02:45:58.399Z,16.59
2022-10-17T02:49:25.884Z,16.59
2022-10-17T02:52:35.615Z,16.54
2022-10-17T02:56:13.065Z,16.59
2022-10-17T02:59:21.481Z,16.61
2022-10-17T03:02:24.900Z,16.64
2022-10-17T03:05:30.918Z,16.63
2022-10-17T03:08:33.847Z,16.58
2022-10-17T03:11:36.781Z,16.55
2022-10-17T03:14:39.647Z,16.55
2022-10-17T03:17:42.710Z,16.54
2022-10-17T03:20:45.592Z,16.55
2022-10-17T03:23:48.472Z,16.55
2022-10-17T03:26:51.565Z,16.56
2022-10-17T03:29:54.509Z,16.55
2022-10-17T03:33:00.969Z,16.51
2022-10-17T03:36:12.564Z,16.47
2022-10-17T03:39:15.406Z,16.36
2022-10-17T03:42:18.472Z,16.32
2022-10-17T03:45:22.801Z,16.32
2022-10-17T03:48:26.463Z,16.30
2022-10-17T03:51:29.438Z,16.26
2022-10-17T03:54:32.307Z,16.23
2022-10-17T03:57:37.159Z,16.24
2022-10-17T04:00:40.204Z,16.25
2022-10-17T04:03:43.478Z,16.23
2022-10-17T04:06:46.446Z,16.22
2022-10-17T04:09:49.637Z,16.21
2022-10-17T04:12:52.636Z,16.27
2022-10-17T04:16:03.958Z,16.29
2022-10-17T04:19:06.931Z,16.26
2022-10-17T04:22:09.905Z,16.26
2022-10-17T04:25:12.775Z,16.26
2022-10-17T04:28:15.958Z,16.21
2022-10-17T04:31:19.745Z,16.18
2022-10-17T04:34:22.917Z,16.16
2022-10-17T04:37:25.995Z,16.14
2022-10-17T04:40:29.964Z,16.10
2022-10-17T04:43:36.076Z,16.10
2022-10-17T04:46:39.005Z,16.09
2022-10-17T04:49:42.489Z,16.10
2022-10-17T04:52:45.254Z,16.06
2022-10-17T04:55:50.582Z,16.01
2022-10-17T04:58:53.449Z,16.01
2022-10-17T05:02:00.012Z,16.01
2022-10-17T05:05:02.880Z,15.98
2022-10-17T05:08:07.280Z,15.98
2022-10-17T05:11:36.755Z,15.98
2022-10-17T05:14:39.627Z,15.90
2022-10-17T05:17:42.699Z,15.76
2022-10-17T05:20:47.820Z,15.71
2022-10-17T05:23:51.407Z,15.72
2022-10-17T05:27:04.611Z,15.69
2022-10-17T05:30:08.916Z,15.71
2022-10-17T05:33:11.797Z,15.71
2022-10-17T05:36:15.171Z,15.71
2022-10-17T05:39:19.906Z,15.77
2022-10-17T05:42:23.325Z,15.80
2022-10-17T05:45:26.539Z,15.78
2022-10-17T05:48:29.305Z,15.80
2022-10-17T05:51:34.070Z,15.85
2022-10-17T05:54:36.990Z,15.88
2022-10-17T05:57:40.075Z,15.90
2022-10-17T06:00:43.276Z,15.89
2022-10-17T06:03:46.421Z,15.92
2022-10-17T06:06:49.297Z,15.90
2022-10-17T06:09:52.165Z,15.89
2022-10-17T06:12:55.027Z,15.89
2022-10-17T06:15:58.006Z,15.90
2022-10-17T06:19:00.874Z,15.90
2022-10-17T06:22:03.740Z,15.91
2022-10-17T06:25:06.863Z,15.93
2022-10-17T06:28:11.426Z,15.96
2022-10-17T06:31:16.785Z,15.95
2022-10-17T06:34:19.826Z,15.95
2022-10-17T06:37:25.566Z,15.98
2022-10-17T06:40:28.531Z,15.98
2022-10-17T06:43:31.413Z,15.96
2022-10-17T06:46:34.183Z,15.96
2022-10-17T06:49:37.142Z,15.98
2022-10-17T06:52:40.114Z,16.02
2022-10-17T06:55:43.186Z,16.04
2022-10-17T06:58:47.292Z,16.06
2022-10-17T07:01:50.360Z,16.05
2022-10-17T07:04:53.434Z,16.07
2022-10-17T07:07:56.306Z,16.07
2022-10-17T07:11:09.717Z,16.10
2022-10-17T07:14:12.687Z,16.12
2022-10-17T07:17:15.661Z,16.08
2022-10-17T07:20:18.939Z,16.10
2022-10-17T07:23:22.934Z,16.12
2022-10-17T07:26:26.009Z,16.14
2022-10-17T07:29:29.634Z,16.17
2022-10-17T07:32:32.979Z,16.18
2022-10-17T07:35:40.982Z,16.20
2022-10-17T07:38:44.344Z,16.24
2022-10-17T07:41:50.905Z,16.26
2022-10-17T07:44:53.982Z,16.29
2022-10-17T07:47:57.766Z,16.32
2022-10-17T07:51:08.827Z,16.36
2022-10-17T07:54:11.846Z,16.39
2022-10-17T07:57:14.764Z,16.41
2022-10-17T08:00:17.635Z,16.45
2022-10-17T08:03:20.504Z,16.49
2022-10-17T08:06:23.379Z,16.52
2022-10-17T08:09:26.350Z,16.55
2022-10-17T08:12:32.806Z,16.56
2022-10-17T08:15:38.958Z,16.62
2022-10-17T08:18:46.745Z,16.63
2022-10-17T08:21:50.413Z,16.64
2022-10-17T08:24:53.697Z,16.66
2022-10-17T08:27:58.008Z,16.68
2022-10-17T08:31:10.058Z,16.71
2022-10-17T08:34:13.046Z,16.75
2022-10-17T08:37:16.326Z,16.80
2022-10-17T08:40:27.797Z,16.87
2022-10-17T08:43:52.868Z,16.93
2022-10-17T08:46:59.628Z,16.96
2022-10-17T08:50:07.208Z,17.01
2022-10-17T08:53:20.206Z,17.07
2022-10-17T08:56:44.530Z,17.14
2022-10-17T08:59:53.585Z,17.20
2022-10-17T09:03:48.227Z,17.27
2022-10-17T09:07:01.200Z,17.36
2022-10-17T09:10:19.364Z,17.42
2022-10-17T09:13:44.931Z,17.48
2022-10-17T09:16:57.039Z,17.55
2022-10-17T09:20:11.251Z,17.62
2022-10-17T09:23:20.145Z,17.70
2022-10-17T09:26:23.740Z,17.76
2022-10-17T09:29:32.388Z,17.84
2022-10-17T09:32:38.387Z,17.92
2022-10-17T09:35:42.684Z,17.97
2022-10-17T09:38:51.360Z,18.02
2022-10-17T09:41:58.024Z,18.07
2022-10-17T09:45:26.194Z,18.12
2022-10-17T09:48:52.583Z,18.19
2022-10-17T09:51:57.936Z,18.25
2022-10-17T09:55:16.055Z,18.30
2022-10-17T09:58:21.004Z,18.39
2022-10-17T10:01:31.238Z,18.50
2022-10-17T10:04:41.555Z,18.55
2022-10-17T10:08:06.698Z,18.60
2022-10-17T10:11:13.885Z,18.68
2022-10-17T10:14:35.648Z,18.74
2022-10-17T10:17:44.146Z,18.80
2022-10-17T10:20:47.183Z,18.87
2022-10-17T10:24:10.119Z,18.90
2022-10-17T10:27:16.975Z,18.94
2022-10-17T10:30:29.571Z,18.94
2022-10-17T10:33:41.356Z,18.94
2022-10-17T10:37:04.674Z,18.94
2022-10-17T10:40:30.979Z,18.91
2022-10-17T10:43:45.659Z,18.90
2022-10-17T10:46:48.896Z,18.93
2022-10-17T10:50:06.418Z,19.00
2022-10-17T10:53:44.781Z,19.08
2022-10-17T10:56:53.473Z,19.13
2022-10-17T11:00:13.751Z,19.18
2022-10-17T11:03:24.704Z,19.24
2022-10-17T11:06:37.704Z,19.30
2022-10-17T11:10:12.401Z,19.33
2022-10-17T11:13:24.511Z,19.38
2022-10-17T11:16:42.259Z,19.47
2022-10-17T11:20:15.972Z,19.54
2022-10-17T11:23:35.308Z,19.60
2022-10-17T11:27:00.999Z,19.69
2022-10-17T11:30:12.880Z,19.78
2022-10-17T11:33:27.918Z,19.86
2022-10-17T11:36:36.216Z,19.87
2022-10-17T11:39:52.287Z,19.91
2022-10-17T11:43:07.130Z,19.94
2022-10-17T11:46:26.167Z,20.00
2022-10-17T11:49:39.913Z,20.07
2022-10-17T11:53:09.088Z,20.10
2022-10-17T11:56:15.269Z,20.17
2022-10-17T11:59:34.852Z,20.27
2022-10-17T12:03:12.437Z,20.36
2022-10-17T12:06:40.290Z,20.45
2022-10-17T12:10:16.993Z,20.49
2022-10-17T12:13:31.183Z,20.57
2022-10-17T12:16:34.430Z,20.67
2022-10-17T12:19:38.703Z,20.76
2022-10-17T12:22:48.230Z,20.86
2022-10-17T12:26:04.640Z,20.96
2022-10-17T12:29:29.287Z,21.03
2022-10-17T12:32:46.939Z,21.07
2022-10-17T12:36:33.645Z,21.07
2022-10-17T12:39:36.513Z,21.02
2022-10-17T12:42:48.842Z,20.99
2022-10-17T12:45:53.328Z,20.95
2022-10-17T12:49:01.917Z,20.95
2022-10-17T12:52:06.923Z,21.01
2022-10-17T12:55:19.220Z,21.10
2022-10-17T12:58:23.228Z,21.20
2022-10-17T13:01:34.357Z,21.27
2022-10-17T13:04:37.539Z,21.35
2022-10-17T13:07:42.763Z,21.43
2022-10-17T13:10:51.589Z,21.51
2022-10-17T13:13:59.305Z,21.56
2022-10-17T13:17:06.499Z,21.67
2022-10-17T13:20:27.544Z,21.76
2022-10-17T13:23:37.975Z,21.85
2022-10-17T13:26:45.827Z,21.96
2022-10-17T13:29:48.805Z,22.07
2022-10-17T13:32:52.184Z,22.11
2022-10-17T13:36:00.370Z,22.13
2022-10-17T13:39:12.337Z,22.07
2022-10-17T13:42:26.222Z,22.00
2022-10-17T13:45:34.873Z,21.99
2022-10-17T13:48:38.458Z,22.01
2022-10-17T13:51:51.122Z,21.96
2022-10-17T13:54:54.865Z,21.81
2022-10-17T13:58:10.195Z,21.59
2022-10-17T14:01:14.566Z,21.40
2022-10-17T14:04:20.391Z,21.29
2022-10-17T14:07:34.220Z,21.19
2022-10-17T14:10:46.504Z,21.08
2022-10-17T14:13:53.123Z,21.01
2022-10-17T14:16:56.533Z,20.95
2022-10-17T14:23:34.252Z,20.78
2022-10-17T14:27:06.896Z,20.71
2022-10-17T14:34:02.615Z,20.63
2022-10-17T14:37:26.849Z,20.64
2022-10-17T14:40:32.770Z,20.64
2022-10-17T14:43:35.744Z,20.63
2022-10-17T14:46:49.730Z,20.61
2022-10-17T14:50:13.008Z,20.57
2022-10-17T14:53:15.979Z,20.56
2022-10-17T14:56:25.804Z,20.55
2022-10-17T14:59:52.950Z,20.55
2022-10-17T15:02:55.362Z,20.54
2022-10-17T15:05:59.629Z,20.53
2022-10-17T15:09:02.663Z,20.51
2022-10-17T15:12:13.210Z,20.47
2022-10-17T15:15:16.384Z,20.46
2022-10-17T15:18:19.571Z,20.50
2022-10-17T15:21:38.433Z,20.52
2022-10-17T15:24:46.120Z,20.51
2022-10-17T15:27:50.301Z,20.50
2022-10-17T15:30:53.250Z,20.48
2022-10-17T15:33:56.219Z,20.43
2022-10-17T15:36:59.396Z,20.40
2022-10-17T15:40:02.268Z,20.40
2022-10-17T15:43:05.237Z,20.40
2022-10-17T15:46:21.665Z,20.39
2022-10-17T15:49:24.587Z,20.36
2022-10-17T15:52:28.586Z,20.31
2022-10-17T15:55:32.785Z,20.28
2022-10-17T15:58:40.510Z,20.29
2022-10-17T16:01:44.052Z,20.30
2022-10-17T16:04:48.252Z,20.29
2022-10-17T16:07:52.609Z,20.30
2022-10-17T16:10:56.971Z,20.30
2022-10-17T16:14:02.593Z,20.28
2022-10-17T16:17:05.974Z,20.23
2022-10-17T16:20:10.289Z,20.21
2022-10-17T16:23:13.865Z,20.23
2022-10-17T16:26:17.249Z,20.22
2022-10-17T16:29:22.008Z,20.20
2022-10-17T16:32:26.157Z,20.19
2022-10-17T16:35:34.732Z,20.15
2022-10-17T16:38:40.591Z,20.13
2022-10-17T16:41:43.463Z,20.14
2022-10-17T16:45:21.389Z,20.14
2022-10-17T16:48:29.595Z,20.11
2022-10-17T16:51:36.995Z,20.09
2022-10-17T16:54:39.868Z,20.07
2022-10-17T16:57:49.186Z,20.04
2022-10-17T17:00:54.169Z,19.99
2022-10-17T17:03:57.586Z,19.99
2022-10-17T17:07:01.248Z,20.00
2022-10-17T17:10:04.758Z,20.00
2022-10-17T17:13:07.836Z,19.99
2022-10-17T17:16:22.878Z,19.97
2022-10-17T17:19:27.383Z,19.94
2022-10-17T17:22:33.195Z,19.92
2022-10-17T17:25:39.678Z,19.88
2022-10-17T17:28:43.459Z,19.88
2022-10-17T17:31:47.362Z,19.88
2022-10-17T17:34:50.230Z,19.87
2022-10-17T17:37:52.996Z,19.86
2022-10-17T17:40:58.321Z,19.84
2022-10-17T17:44:02.421Z,19.82
2022-10-17T17:47:05.427Z,19.79
2022-10-17T17:50:08.775Z,19.76
2022-10-17T17:53:13.807Z,19.72
2022-10-17T17:56:28.230Z,19.66
2022-10-17T17:59:31.506Z,19.65
2022-10-17T18:02:37.667Z,19.66
2022-10-17T18:05:42.483Z,19.67
2022-10-17T18:08:47.813Z,19.59
2022-10-17T18:11:50.661Z,19.54
2022-10-17T18:14:53.640Z,19.49
2022-10-17T18:17:56.605Z,19.49
2022-10-17T18:21:01.431Z,19.44
2022-10-17T18:24:07.270Z,19.42
2022-10-17T18:27:10.141Z,19.39
2022-10-17T18:30:15.056Z,19.35
2022-10-17T18:33:18.018Z,19.30
2022-10-17T18:36:21.863Z,19.24
2022-10-17T18:39:24.833Z,19.24
2022-10-17T18:42:28.184Z,19.19
2022-10-17T18:45:31.849Z,19.19
2022-10-17T18:48:45.173Z,19.17
2022-10-17T18:51:48.035Z,19.15
2022-10-17T18:54:50.820Z,19.13
2022-10-17T18:57:54.030Z,19.08
2022-10-17T19:01:03.607Z,19.05
2022-10-17T19:04:06.779Z,19.05
2022-10-17T19:07:09.641Z,19.02
2022-10-17T19:10:12.717Z,19.00
2022-10-17T19:13:20.716Z,18.96
2022-10-17T19:16:34.571Z,18.93
2022-10-17T19:19:37.610Z,18.84
2022-10-17T19:22:40.503Z,18.82
2022-10-17T19:25:43.956Z,18.82
2022-10-17T19:28:47.910Z,18.83
2022-10-17T19:31:51.226Z,18.80
2022-10-17T19:34:54.403Z,18.76
2022-10-17T19:37:57.744Z,18.70
2022-10-17T19:41:00.971Z,18.70
2022-10-17T19:44:03.809Z,18.68
2022-10-17T19:47:06.674Z,18.62
2022-10-17T19:50:09.692Z,18.65
2022-10-17T19:53:12.645Z,18.62
2022-10-17T19:56:18.822Z,18.69
2022-10-17T19:59:45.587Z,18.65
2022-10-17T20:02:49.712Z,18.63
2022-10-17T20:05:52.747Z,18.65
2022-10-17T20:08:56.469Z,18.64
2022-10-17T20:12:00.263Z,18.61
2022-10-17T20:15:03.665Z,18.56
2022-10-17T20:18:07.565Z,18.56
2022-10-17T20:21:12.964Z,18.53
2022-10-17T20:24:19.775Z,18.52
2022-10-17T20:27:27.724Z,18.48
2022-10-17T20:30:30.994Z,18.48
2022-10-17T20:33:39.517Z,18.47
2022-10-17T20:36:44.292Z,18.43
2022-10-17T20:39:52.640Z,18.38
2022-10-17T20:43:21.163Z,18.38
2022-10-17T20:46:36.993Z,18.42
2022-10-17T20:49:41.010Z,18.44
2022-10-17T20:52:43.893Z,18.44
2022-10-17T20:55:47.774Z,18.44
2022-10-17T20:58:52.803Z,18.39
2022-10-17T21:01:56.585Z,18.43
2022-10-17T21:05:00.278Z,18.45
2022-10-17T21:08:05.081Z,18.43
2022-10-17T21:11:11.243Z,18.42
2022-10-17T21:14:16.936Z,18.36
2022-10-17T21:17:20.061Z,18.35
2022-10-17T21:20:22.913Z,18.33
2022-10-17T21:23:26.603Z,18.29
2022-10-17T21:26:32.742Z,18.34
2022-10-17T21:29:35.727Z,18.33
2022-10-17T21:32:51.101Z,18.34
2022-10-17T21:35:55.374Z,18.34
2022-10-17T21:38:58.487Z,18.28
2022-10-17T21:42:01.531Z,18.28
2022-10-17T21:45:10.689Z,18.27
2022-10-17T21:48:19.124Z,18.28
2022-10-17T21:51:24.184Z,18.26
2022-10-17T21:54:29.483Z,18.22
2022-10-17T21:57:33.690Z,18.19
2022-10-17T22:00:37.921Z,18.17
2022-10-17T22:03:47.330Z,18.19
2022-10-17T22:06:53.558Z,18.14
2022-10-17T22:09:56.541Z,18.12
2022-10-17T22:12:59.493Z,18.11
2022-10-17T22:16:06.355Z,18.08
2022-10-17T22:19:12.006Z,18.04
2022-10-17T22:22:14.827Z,18.05
2022-10-17T22:25:18.060Z,18.07
2022-10-17T22:28:22.838Z,18.12
2022-10-17T22:31:26.973Z,18.13
2022-10-17T22:34:30.121Z,18.11
2022-10-17T22:37:35.957Z,18.08
2022-10-17T22:40:39.992Z,18.05
2022-10-17T22:43:43.128Z,18.03
2022-10-17T22:46:45.894Z,18.04
2022-10-17T22:49:54.087Z,18.08
2022-10-17T22:52:57.469Z,18.02
2022-10-17T22:56:36.256Z,18.03
2022-10-17T22:59:40.887Z,18.01
2022-10-17T23:02:45.075Z,17.99
2022-10-17T23:05:50.129Z,18.00
2022-10-17T23:08:53.060Z,18.00
2022-10-17T23:11:56.043Z,17.97
2022-10-17T23:15:00.944Z,17.97
2022-10-17T23:18:05.452Z,17.94
2022-10-17T23:21:08.937Z,17.90
2022-10-17T23:24:15.388Z,17.92
2022-10-17T23:27:18.503Z,17.91
2022-10-17T23:30:23.081Z,17.91
2022-10-17T23:33:26.151Z,17.91
2022-10-17T23:36:29.227Z,17.89
2022-10-17T23:39:33.525Z,17.92
2022-10-17T23:42:36.810Z,17.92
2022-10-17T23:48:49.096Z,17.90
2022-10-17T23:51:53.706Z,17.87
2022-10-17T23:54:57.083Z,17.87
2022-10-17T23:58:00.177Z,17.88
